Time;durP1;ratioP1;P1;durP2;ratioP2;P2;SDS_P1;SDS_P2;PMS_P1;PMS_P2;Temp;Humidity;BMP_temperature;BMP_pressure;BME280_temperature;BME280_humidity;BME280_pressure;Samples;Min_cycle;Max_cycle;Signal;HPM_P1;HPM_P2
2023/12/14 00:00:00;;;;;;;16.93;10.43;;;;;;;;;;686973;28;735;-74
2023/12/14 00:00:20;;;;;;;17.20;10.67;;;;;;;;;;689455;28;873;-73
2023/12/14 00:00:41;;;;;;;17.23;10.90;;;;;;;;;;689121;28;1718;-72
2023/12/14 00:01:01;;;;;;;18.03;11.20;;;;;;;;;;688585;28;4546;-72
2023/12/14 00:01:21;;;;;;;17.33;10.83;;;;;;;;;;690457;28;940;-74
2023/12/14 00:01:42;;;;;;;17.13;11.18;;;;;;;;;;688915;28;2225;-74
2023/12/14 00:02:02;;;;;;;18.47;12.40;;;;;;;;;;690148;28;860;-73
2023/12/14 00:02:22;;;;;;;20.03;13.43;;;;;;;;;;689938;28;771;-73
2023/12/14 00:02:42;;;;;;;20.30;13.60;;;;;;;;;;689544;28;1804;-73
2023/12/14 00:03:03;;;;;;;19.80;13.00;;;;;;;;;;689664;28;991;-73
2023/12/14 00:03:23;;;;;;;20.57;12.93;;;;;;;;;;689555;28;944;-74
2023/12/14 00:03:46;;;;;;;21.08;13.30;;;;;;;;;;689236;28;1851;-73
2023/12/14 00:04:07;;;;;;;20.90;13.38;;;;;;;;;;687068;28;4460;-72
2023/12/14 00:04:27;;;;;;;23.77;14.10;;;;;;;;;;689650;28;940;-74
2023/12/14 00:04:48;;;;;;;23.33;14.40;;;;;;;;;;689314;28;1973;-75
2023/12/14 00:05:09;;;;;;;23.23;14.48;;;;;;;;;;689252;28;916;-72
2023/12/14 00:05:31;;;;;;;23.48;14.05;;;;;;;;;;689977;28;1301;-72
2023/12/14 00:05:52;;;;;;;20.80;13.68;;;;;;;;;;688326;28;1711;-73
2023/12/14 00:06:13;;;;;;;20.77;13.40;;;;;;;;;;688349;28;793;-73
2023/12/14 00:06:35;;;;;;;21.55;13.63;;;;;;;;;;683556;28;1356;-73
2023/12/14 00:06:56;;;;;;;24.38;13.82;;;;;;;;;;684307;28;5156;-73
2023/12/14 00:07:18;;;;;;;21.52;13.50;;;;;;;;;;685283;28;846;-73
2023/12/14 00:07:39;;;;;;;20.42;13.55;;;;;;;;;;685038;28;1727;-74
2023/12/14 00:08:01;;;;;;;21.15;13.57;;;;;;;;;;684638;28;893;-74
2023/12/14 00:08:22;;;;;;;21.70;14.57;;;;;;;;;;684613;28;1438;-73
2023/12/14 00:08:43;;;;;;;21.60;14.40;;;;;;;;;;685878;28;1893;-73
2023/12/14 00:09:05;;;;;;;21.35;13.65;;;;;;;;;;686731;28;857;-73
2023/12/14 00:09:26;;;;;;;21.42;13.85;;;;;;;;;;686878;28;853;-73
2023/12/14 00:09:48;;;;;;;20.77;14.15;;;;;;;;;;685503;28;2287;-73
2023/12/14 00:10:09;;;;;;;20.83;13.30;;;;;;;;;;683965;28;6193;-73
2023/12/14 00:10:34;;;;;;;19.38;13.10;;;;;;;;;;687487;28;944;-73
2023/12/14 00:10:55;;;;;;;20.48;13.40;;;;;;;;;;689079;28;943;-73
2023/12/14 00:11:16;;;;;;;22.55;14.13;;;;;;;;;;688350;28;841;-74
2023/12/14 00:11:38;;;;;;;23.30;13.75;;;;;;;;;;688229;28;1784;-72
2023/12/14 00:12:00;;;;;;;21.15;14.13;;;;;;;;;;689434;28;857;-72
2023/12/14 00:12:21;;;;;;;23.30;14.65;;;;;;;;;;689724;28;1429;-73
2023/12/14 00:12:42;;;;;;;23.92;14.32;;;;;;;;;;688861;28;2188;-74
2023/12/14 00:13:04;;;;;;;21.27;13.65;;;;;;;;;;689160;28;4267;-72
2023/12/14 00:13:25;;;;;;;21.80;13.48;;;;;;;;;;690039;28;940;-72
2023/12/14 00:13:46;;;;;;;23.65;13.93;;;;;;;;;;688022;28;2744;-73
2023/12/14 00:14:06;;;;;;;23.80;14.03;;;;;;;;;;690226;28;794;-73
2023/12/14 00:14:27;;;;;;;21.98;13.80;;;;;;;;;;689622;28;943;-73
2023/12/14 00:14:48;;;;;;;23.25;13.75;;;;;;;;;;687929;28;1842;-73
2023/12/14 00:15:09;;;;;;;23.70;13.57;;;;;;;;;;688915;28;1296;-72
2023/12/14 00:15:29;;;;;;;21.93;14.10;;;;;;;;;;686878;28;1168;-74
2023/12/14 00:15:50;;;;;;;23.57;15.47;;;;;;;;;;687100;28;4407;-74
2023/12/14 00:16:10;;;;;;;24.05;15.00;;;;;;;;;;684805;28;872;-72
2023/12/14 00:16:31;;;;;;;24.20;15.37;;;;;;;;;;681734;28;814;-72
2023/12/14 00:16:52;;;;;;;24.60;14.50;;;;;;;;;;680996;28;1704;-73
2023/12/14 00:17:13;;;;;;;23.48;14.57;;;;;;;;;;682006;28;1382;-73
2023/12/14 00:17:33;;;;;;;21.23;14.18;;;;;;;;;;681328;28;1209;-72
2023/12/14 00:17:54;;;;;;;21.50;14.00;;;;;;;;;;680501;28;1351;-73
2023/12/14 00:18:15;;;;;;;23.50;14.83;;;;;;;;;;684152;28;869;-73
2023/12/14 00:18:35;;;;;;;24.15;15.15;;;;;;;;;;685959;28;1780;-73
2023/12/14 00:18:56;;;;;;;22.00;14.33;;;;;;;;;;686296;28;4302;-73
2023/12/14 00:19:17;;;;;;;23.53;15.37;;;;;;;;;;689452;28;872;-73
2023/12/14 00:19:38;;;;;;;25.45;15.82;;;;;;;;;;688611;28;2474;-73
2023/12/14 00:19:58;;;;;;;23.97;14.67;;;;;;;;;;689740;28;865;-73
2023/12/14 00:20:19;;;;;;;22.35;14.50;;;;;;;;;;689613;28;1122;-73
2023/12/14 00:20:40;;;;;;;24.93;14.90;;;;;;;;;;687184;28;1757;-73
2023/12/14 00:21:00;;;;;;;23.73;14.77;;;;;;;;;;689276;28;885;-73
2023/12/14 00:21:21;;;;;;;23.60;14.73;;;;;;;;;;689825;28;1047;-73
2023/12/14 00:21:42;;;;;;;24.48;14.48;;;;;;;;;;688786;28;1739;-73
2023/12/14 00:22:02;;;;;;;24.10;14.20;;;;;;;;;;688475;28;4233;-73
2023/12/14 00:22:24;;;;;;;23.65;13.88;;;;;;;;;;689805;28;912;-73
2023/12/14 00:22:44;;;;;;;20.70;14.00;;;;;;;;;;689007;28;1707;-73
2023/12/14 00:23:05;;;;;;;20.90;13.73;;;;;;;;;;688904;28;1100;-72
2023/12/14 00:23:26;;;;;;;22.40;14.65;;;;;;;;;;690037;28;1152;-73
2023/12/14 00:23:46;;;;;;;25.08;14.88;;;;;;;;;;690941;28;2378;-73
2023/12/14 00:24:07;;;;;;;23.73;14.63;;;;;;;;;;686814;28;1188;-72
2023/12/14 00:24:28;;;;;;;26.58;14.85;;;;;;;;;;686853;28;885;-73
2023/12/14 00:24:48;;;;;;;23.13;14.05;;;;;;;;;;688184;28;4275;-72
2023/12/14 00:25:09;;;;;;;22.35;14.00;;;;;;;;;;689560;28;809;-72
2023/12/14 00:25:30;;;;;;;22.40;14.10;;;;;;;;;;689864;28;853;-73
2023/12/14 00:25:50;;;;;;;25.80;14.43;;;;;;;;;;689354;28;2209;-73
2023/12/14 00:26:11;;;;;;;25.42;14.00;;;;;;;;;;689501;28;856;-73
2023/12/14 00:26:32;;;;;;;23.35;14.05;;;;;;;;;;689871;28;904;-72
2023/12/14 00:26:53;;;;;;;23.75;14.45;;;;;;;;;;688962;28;2297;-73
2023/12/14 00:27:13;;;;;;;23.30;14.20;;;;;;;;;;689696;28;920;-73
2023/12/14 00:27:34;;;;;;;23.40;14.00;;;;;;;;;;686421;28;1288;-72
2023/12/14 00:27:55;;;;;;;23.55;14.55;;;;;;;;;;686013;28;4265;-72
2023/12/14 00:28:15;;;;;;;23.50;14.73;;;;;;;;;;686476;28;1411;-72
2023/12/14 00:28:36;;;;;;;24.37;14.77;;;;;;;;;;685495;28;2350;-72
2023/12/14 00:28:57;;;;;;;24.58;14.70;;;;;;;;;;686869;28;833;-72
2023/12/14 00:29:17;;;;;;;24.80;14.23;;;;;;;;;;686575;28;1459;-72
2023/12/14 00:29:38;;;;;;;22.93;13.77;;;;;;;;;;685658;28;1732;-72
2023/12/14 00:29:59;;;;;;;21.27;14.23;;;;;;;;;;684438;28;1380;-73
2023/12/14 00:30:19;;;;;;;23.58;14.00;;;;;;;;;;684224;28;786;-73
2023/12/14 00:30:40;;;;;;;22.85;14.38;;;;;;;;;;683192;28;1724;-73
2023/12/14 00:31:01;;;;;;;24.63;14.50;;;;;;;;;;684283;28;4354;-73
2023/12/14 00:31:21;;;;;;;23.50;13.85;;;;;;;;;;687149;28;841;-73
2023/12/14 00:31:42;;;;;;;22.60;13.35;;;;;;;;;;685574;28;2234;-73
2023/12/14 00:32:03;;;;;;;22.20;13.40;;;;;;;;;;689527;28;1215;-73
2023/12/14 00:32:24;;;;;;;23.57;13.40;;;;;;;;;;689681;28;905;-72
2023/12/14 00:32:44;;;;;;;23.73;14.10;;;;;;;;;;688274;28;1808;-73
2023/12/14 00:33:05;;;;;;;22.65;13.88;;;;;;;;;;686819;28;1173;-73
2023/12/14 00:33:26;;;;;;;20.08;13.85;;;;;;;;;;687416;28;801;-73
2023/12/14 00:33:46;;;;;;;20.93;13.80;;;;;;;;;;687242;28;1760;-72
2023/12/14 00:34:07;;;;;;;22.25;13.50;;;;;;;;;;689317;28;4210;-72
2023/12/14 00:34:28;;;;;;;23.85;13.73;;;;;;;;;;686949;28;821;-73
2023/12/14 00:34:48;;;;;;;22.42;13.63;;;;;;;;;;686729;28;864;-73
2023/12/14 00:35:09;;;;;;;21.30;13.10;;;;;;;;;;687211;28;806;-72
2023/12/14 00:35:30;;;;;;;22.45;13.05;;;;;;;;;;684207;28;873;-73
2023/12/14 00:35:51;;;;;;;20.67;13.48;;;;;;;;;;684719;28;2026;-71
2023/12/14 00:36:17;;;;;;;21.10;13.55;;;;;;;;;;685828;28;888;-72
2023/12/14 00:36:38;;;;;;;21.60;13.35;;;;;;;;;;687171;28;2259;-72
2023/12/14 00:36:59;;;;;;;22.25;13.18;;;;;;;;;;688258;28;4277;-71
2023/12/14 00:37:19;;;;;;;21.17;13.25;;;;;;;;;;687540;28;1339;-71
2023/12/14 00:37:40;;;;;;;23.15;13.88;;;;;;;;;;685606;28;2294;-71
2023/12/14 00:38:01;;;;;;;21.90;13.27;;;;;;;;;;686640;28;876;-71
2023/12/14 00:38:21;;;;;;;21.27;12.80;;;;;;;;;;685989;28;834;-71
2023/12/14 00:38:42;;;;;;;20.95;13.57;;;;;;;;;;686675;28;1441;-72
2023/12/14 00:39:04;;;;;;;21.20;13.00;;;;;;;;;;686919;28;2382;-71
2023/12/14 00:39:24;;;;;;;20.45;13.43;;;;;;;;;;689942;28;1204;-72
2023/12/14 00:39:45;;;;;;;21.67;13.10;;;;;;;;;;690163;28;1894;-72
2023/12/14 00:40:06;;;;;;;20.67;12.25;;;;;;;;;;688811;28;4428;-71
2023/12/14 00:40:27;;;;;;;21.90;12.65;;;;;;;;;;690000;28;825;-71
2023/12/14 00:40:47;;;;;;;22.33;13.33;;;;;;;;;;688640;28;1728;-71
2023/12/14 00:41:08;;;;;;;22.50;13.18;;;;;;;;;;687138;28;786;-72
2023/12/14 00:41:28;;;;;;;21.50;13.27;;;;;;;;;;687129;28;1429;-71
2023/12/14 00:41:49;;;;;;;22.73;13.47;;;;;;;;;;687515;28;1783;-72
2023/12/14 00:42:10;;;;;;;24.00;12.82;;;;;;;;;;689108;28;809;-71
2023/12/14 00:42:30;;;;;;;21.40;12.93;;;;;;;;;;689053;28;837;-72
2023/12/14 00:42:51;;;;;;;22.67;13.27;;;;;;;;;;688338;28;4424;-72
2023/12/14 00:43:12;;;;;;;21.70;12.93;;;;;;;;;;689460;28;1020;-72
2023/12/14 00:43:33;;;;;;;22.45;13.55;;;;;;;;;;689907;28;834;-72
2023/12/14 00:43:53;;;;;;;20.70;13.15;;;;;;;;;;689373;28;2243;-71
2023/12/14 00:44:14;;;;;;;21.50;13.03;;;;;;;;;;689108;28;882;-72
2023/12/14 00:44:35;;;;;;;21.80;12.82;;;;;;;;;;687193;28;1490;-72
2023/12/14 00:44:55;;;;;;;21.65;13.32;;;;;;;;;;686058;28;2393;-72
2023/12/14 00:45:16;;;;;;;21.08;13.20;;;;;;;;;;686092;28;806;-72
2023/12/14 00:45:37;;;;;;;23.00;13.87;;;;;;;;;;686300;28;2160;-72
2023/12/14 00:45:57;;;;;;;23.48;13.75;;;;;;;;;;689234;28;4448;-71
2023/12/14 00:46:18;;;;;;;23.58;13.50;;;;;;;;;;689435;28;810;-72
2023/12/14 00:46:39;;;;;;;23.02;13.38;;;;;;;;;;687394;28;1773;-72
2023/12/14 00:47:00;;;;;;;22.55;13.75;;;;;;;;;;688474;28;853;-72
2023/12/14 00:47:21;;;;;;;21.52;13.55;;;;;;;;;;687392;28;838;-72
2023/12/14 00:47:42;;;;;;;22.08;13.32;;;;;;;;;;689374;28;2435;-72
2023/12/14 00:48:02;;;;;;;22.13;13.20;;;;;;;;;;688495;28;829;-73
2023/12/14 00:48:23;;;;;;;23.45;13.50;;;;;;;;;;686777;28;906;-72
2023/12/14 00:48:44;;;;;;;22.20;12.85;;;;;;;;;;689191;28;2223;-72
2023/12/14 00:49:04;;;;;;;21.45;13.63;;;;;;;;;;689493;28;4200;-72
2023/12/14 00:49:27;;;;;;;23.10;14.20;;;;;;;;;;688952;28;794;-72
2023/12/14 00:49:48;;;;;;;24.05;13.55;;;;;;;;;;689301;28;1764;-73
2023/12/14 00:50:09;;;;;;;24.50;13.83;;;;;;;;;;689982;28;1118;-72
2023/12/14 00:50:29;;;;;;;24.35;13.90;;;;;;;;;;689363;28;872;-71
2023/12/14 00:50:50;;;;;;;23.88;13.90;;;;;;;;;;689200;28;1116;-72
2023/12/14 00:51:11;;;;;;;24.97;14.40;;;;;;;;;;689572;28;807;-72
2023/12/14 00:51:32;;;;;;;25.73;14.70;;;;;;;;;;689687;28;810;-72
2023/12/14 00:51:52;;;;;;;25.40;13.90;;;;;;;;;;689382;28;4299;-72
2023/12/14 00:52:13;;;;;;;24.75;13.88;;;;;;;;;;690129;28;832;-72
2023/12/14 00:52:34;;;;;;;25.73;14.85;;;;;;;;;;689249;28;852;-71
2023/12/14 00:52:55;;;;;;;25.73;15.10;;;;;;;;;;689716;28;1165;-71
2023/12/14 00:53:15;;;;;;;24.23;13.63;;;;;;;;;;689881;28;801;-72
2023/12/14 00:53:36;;;;;;;24.98;13.82;;;;;;;;;;689465;28;903;-72
2023/12/14 00:53:57;;;;;;;23.05;14.00;;;;;;;;;;689687;28;829;-72
2023/12/14 00:54:17;;;;;;;23.13;14.37;;;;;;;;;;689843;28;798;-72
2023/12/14 00:54:38;;;;;;;26.35;13.95;;;;;;;;;;688202;28;1765;-72
2023/12/14 00:54:59;;;;;;;22.67;13.63;;;;;;;;;;691167;28;4441;-72
2023/12/14 00:55:19;;;;;;;23.73;14.15;;;;;;;;;;692226;28;841;-71
2023/12/14 00:55:40;;;;;;;22.97;14.43;;;;;;;;;;692072;28;1087;-72
2023/12/14 00:56:00;;;;;;;23.40;13.88;;;;;;;;;;693599;28;1984;-72
2023/12/14 00:56:21;;;;;;;24.05;14.13;;;;;;;;;;691706;28;924;-72
2023/12/14 00:56:41;;;;;;;24.33;13.90;;;;;;;;;;690653;28;2368;-72
2023/12/14 00:57:02;;;;;;;24.70;14.77;;;;;;;;;;689842;28;1193;-72
2023/12/14 00:57:22;;;;;;;25.30;14.38;;;;;;;;;;687100;28;940;-72
2023/12/14 00:57:42;;;;;;;23.40;13.93;;;;;;;;;;686107;28;1747;-72
2023/12/14 00:58:02;;;;;;;24.33;14.40;;;;;;;;;;686210;28;4305;-72
2023/12/14 00:58:23;;;;;;;25.02;14.20;;;;;;;;;;686766;28;889;-72
2023/12/14 00:58:43;;;;;;;26.73;14.30;;;;;;;;;;686914;28;1778;-72
2023/12/14 00:59:03;;;;;;;26.37;15.43;;;;;;;;;;687014;28;1198;-71
2023/12/14 00:59:23;;;;;;;27.50;15.43;;;;;;;;;;689653;28;790;-72
2023/12/14 00:59:44;;;;;;;28.63;15.60;;;;;;;;;;689098;28;1457;-72
2023/12/14 01:00:04;;;;;;;28.90;15.33;;;;;;;;;;689575;28;892;-72
2023/12/14 01:00:24;;;;;;;27.42;16.30;;;;;;;;;;689873;28;745;-72
2023/12/14 01:00:45;;;;;;;26.67;15.10;;;;;;;;;;688138;28;1717;-71
2023/12/14 01:01:06;;;;;;;26.85;15.05;;;;;;;;;;687382;28;4241;-72
2023/12/14 01:01:26;;;;;;;27.53;15.53;;;;;;;;;;690193;28;959;-72
2023/12/14 01:01:46;;;;;;;27.35;15.25;;;;;;;;;;688920;28;1777;-71
2023/12/14 01:02:07;;;;;;;27.37;15.30;;;;;;;;;;689208;28;1123;-72
2023/12/14 01:02:27;;;;;;;27.67;15.57;;;;;;;;;;688713;28;1380;-72
2023/12/14 01:02:47;;;;;;;26.53;15.20;;;;;;;;;;688366;28;2410;-72
2023/12/14 01:03:07;;;;;;;28.13;15.47;;;;;;;;;;689327;28;1389;-72
2023/12/14 01:03:28;;;;;;;27.73;15.43;;;;;;;;;;688963;28;1367;-72
2023/12/14 01:03:48;;;;;;;26.75;15.35;;;;;;;;;;688924;28;4255;-71
2023/12/14 01:04:08;;;;;;;27.80;15.50;;;;;;;;;;689281;28;1242;-72
2023/12/14 01:04:29;;;;;;;28.27;15.93;;;;;;;;;;690036;28;1203;-72
2023/12/14 01:04:49;;;;;;;28.77;16.20;;;;;;;;;;690311;28;1743;-72
2023/12/14 01:05:09;;;;;;;27.53;15.13;;;;;;;;;;689165;28;1255;-71
2023/12/14 01:05:29;;;;;;;25.47;14.57;;;;;;;;;;689991;28;1243;-72
2023/12/14 01:05:50;;;;;;;24.67;14.80;;;;;;;;;;689262;28;1713;-72
2023/12/14 01:06:10;;;;;;;27.07;15.10;;;;;;;;;;689424;28;2262;-71
2023/12/14 01:06:30;;;;;;;27.23;15.53;;;;;;;;;;689413;28;1351;-72
2023/12/14 01:06:50;;;;;;;28.57;15.63;;;;;;;;;;688100;28;4339;-72
2023/12/14 01:07:11;;;;;;;27.20;15.43;;;;;;;;;;689234;28;1322;-72
2023/12/14 01:07:31;;;;;;;26.67;15.00;;;;;;;;;;689511;28;1251;-72
2023/12/14 01:07:51;;;;;;;28.15;15.77;;;;;;;;;;688660;28;1736;-73
2023/12/14 01:08:12;;;;;;;27.33;15.57;;;;;;;;;;686746;28;1220;-72
2023/12/14 01:08:32;;;;;;;26.67;15.48;;;;;;;;;;683354;28;1244;-72
2023/12/14 01:08:52;;;;;;;27.53;15.50;;;;;;;;;;685701;28;1851;-72
2023/12/14 01:09:13;;;;;;;28.67;15.33;;;;;;;;;;682574;28;1224;-72
2023/12/14 01:09:33;;;;;;;26.98;15.35;;;;;;;;;;681186;29;1389;-72
2023/12/14 01:09:53;;;;;;;25.00;15.30;;;;;;;;;;680141;28;4338;-72
2023/12/14 01:10:13;;;;;;;27.10;15.80;;;;;;;;;;684564;28;1316;-71
2023/12/14 01:10:35;;;;;;;27.45;15.65;;;;;;;;;;686433;28;1216;-72
2023/12/14 01:10:55;;;;;;;27.42;15.63;;;;;;;;;;686411;28;1784;-72
2023/12/14 01:11:15;;;;;;;27.17;14.83;;;;;;;;;;689128;28;1240;-73
2023/12/14 01:11:35;;;;;;;28.90;15.27;;;;;;;;;;689510;28;1247;-72
2023/12/14 01:11:55;;;;;;;27.70;16.30;;;;;;;;;;688699;28;1164;-72
2023/12/14 01:12:16;;;;;;;28.40;15.33;;;;;;;;;;690098;28;1282;-72
2023/12/14 01:12:36;;;;;;;28.47;15.37;;;;;;;;;;689573;28;1286;-71
2023/12/14 01:12:57;;;;;;;26.63;15.32;;;;;;;;;;688222;28;4256;-72
2023/12/14 01:13:17;;;;;;;28.87;16.10;;;;;;;;;;688486;28;1298;-72
2023/12/14 01:13:37;;;;;;;26.30;15.07;;;;;;;;;;687951;28;1819;-71
2023/12/14 01:13:57;;;;;;;26.58;15.77;;;;;;;;;;687277;28;1459;-71
2023/12/14 01:14:17;;;;;;;28.33;15.70;;;;;;;;;;686490;28;1216;-72
2023/12/14 01:14:38;;;;;;;28.10;16.03;;;;;;;;;;682793;28;1754;-72
2023/12/14 01:14:58;;;;;;;26.40;15.45;;;;;;;;;;687023;28;1331;-72
2023/12/14 01:15:18;;;;;;;26.30;15.37;;;;;;;;;;686556;28;1319;-72
2023/12/14 01:15:38;;;;;;;26.30;15.03;;;;;;;;;;685918;28;1664;-72
2023/12/14 01:15:59;;;;;;;27.60;15.17;;;;;;;;;;686053;28;4472;-72
2023/12/14 01:16:19;;;;;;;28.40;15.18;;;;;;;;;;686462;28;1339;-72
2023/12/14 01:16:39;;;;;;;27.83;15.30;;;;;;;;;;687802;28;3384;-72
2023/12/14 01:16:59;;;;;;;28.73;15.77;;;;;;;;;;687959;28;1217;-71
2023/12/14 01:17:20;;;;;;;28.83;16.10;;;;;;;;;;686617;28;1449;-72
2023/12/14 01:17:40;;;;;;;27.30;15.90;;;;;;;;;;685723;28;1987;-71
2023/12/14 01:18:00;;;;;;;26.90;15.47;;;;;;;;;;689375;28;1279;-72
2023/12/14 01:18:20;;;;;;;29.30;15.23;;;;;;;;;;689463;28;1231;-72
2023/12/14 01:18:41;;;;;;;29.63;15.27;;;;;;;;;;687086;28;1401;-72
2023/12/14 01:19:01;;;;;;;28.23;15.30;;;;;;;;;;688903;28;4244;-72
2023/12/14 01:19:21;;;;;;;26.60;15.25;;;;;;;;;;689969;28;1365;-72
2023/12/14 01:19:41;;;;;;;27.07;15.17;;;;;;;;;;688828;28;2884;-72
2023/12/14 01:20:03;;;;;;;27.70;15.33;;;;;;;;;;689787;28;1425;-71
2023/12/14 01:20:23;;;;;;;27.17;15.93;;;;;;;;;;689295;28;1226;-72
2023/12/14 01:20:43;;;;;;;27.13;15.43;;;;;;;;;;689075;28;1713;-73
2023/12/14 01:21:04;;;;;;;29.10;15.33;;;;;;;;;;689655;28;1370;-72
2023/12/14 01:21:24;;;;;;;29.98;16.55;;;;;;;;;;689665;28;1227;-72
2023/12/14 01:21:45;;;;;;;29.23;15.77;;;;;;;;;;688179;28;1807;-72
2023/12/14 01:22:05;;;;;;;29.08;16.02;;;;;;;;;;689130;28;4366;-73
2023/12/14 01:22:25;;;;;;;31.03;15.60;;;;;;;;;;688505;28;917;-72
2023/12/14 01:22:45;;;;;;;30.20;15.30;;;;;;;;;;689916;28;1460;-72
2023/12/14 01:23:06;;;;;;;30.85;15.13;;;;;;;;;;689297;28;1015;-72
2023/12/14 01:23:26;;;;;;;29.50;15.57;;;;;;;;;;690844;28;1158;-72
2023/12/14 01:23:46;;;;;;;29.37;15.70;;;;;;;;;;689479;28;2363;-73
2023/12/14 01:24:07;;;;;;;30.67;16.00;;;;;;;;;;689453;28;852;-72
2023/12/14 01:24:27;;;;;;;28.93;15.40;;;;;;;;;;689608;28;972;-72
2023/12/14 01:24:47;;;;;;;29.33;15.17;;;;;;;;;;689115;28;2424;-72
2023/12/14 01:25:07;;;;;;;29.42;15.05;;;;;;;;;;688912;28;4201;-71
2023/12/14 01:25:28;;;;;;;27.63;15.43;;;;;;;;;;687131;28;1410;-72
2023/12/14 01:25:48;;;;;;;28.47;15.20;;;;;;;;;;685224;28;1788;-72
2023/12/14 01:26:08;;;;;;;28.47;15.43;;;;;;;;;;686839;28;901;-72
2023/12/14 01:26:28;;;;;;;28.50;15.60;;;;;;;;;;687007;28;921;-72
2023/12/14 01:26:49;;;;;;;29.43;16.27;;;;;;;;;;686328;28;993;-72
2023/12/14 01:27:10;;;;;;;31.27;16.27;;;;;;;;;;686823;28;979;-72
2023/12/14 01:27:30;;;;;;;31.17;16.52;;;;;;;;;;686767;28;1012;-72
2023/12/14 01:27:50;;;;;;;29.55;16.17;;;;;;;;;;688671;28;4307;-72
2023/12/14 01:28:10;;;;;;;28.63;15.87;;;;;;;;;;689729;28;849;-72
2023/12/14 01:28:31;;;;;;;29.50;15.57;;;;;;;;;;688786;28;929;-73
2023/12/14 01:28:51;;;;;;;28.92;15.60;;;;;;;;;;688844;28;2296;-72
2023/12/14 01:29:11;;;;;;;29.03;15.67;;;;;;;;;;686977;28;927;-72
2023/12/14 01:29:31;;;;;;;28.50;15.53;;;;;;;;;;686813;28;935;-73
2023/12/14 01:29:51;;;;;;;30.80;15.77;;;;;;;;;;685699;28;1976;-72
2023/12/14 01:30:12;;;;;;;29.30;16.17;;;;;;;;;;686799;28;924;-73
2023/12/14 01:30:32;;;;;;;28.10;16.00;;;;;;;;;;688109;28;880;-72
2023/12/14 01:30:52;;;;;;;29.00;15.82;;;;;;;;;;686809;28;4295;-72
2023/12/14 01:31:13;;;;;;;30.20;16.40;;;;;;;;;;689647;28;760;-72
2023/12/14 01:31:33;;;;;;;29.03;16.40;;;;;;;;;;685711;28;1172;-72
2023/12/14 01:31:53;;;;;;;30.83;16.20;;;;;;;;;;685377;28;1597;-72
2023/12/14 01:32:14;;;;;;;30.63;16.03;;;;;;;;;;685539;28;948;-72
2023/12/14 01:32:34;;;;;;;29.57;16.27;;;;;;;;;;683043;28;1254;-72
2023/12/14 01:32:54;;;;;;;30.17;15.70;;;;;;;;;;682156;28;2028;-74
2023/12/14 01:33:14;;;;;;;30.83;15.20;;;;;;;;;;683923;28;1382;-71
2023/12/14 01:33:34;;;;;;;30.73;15.37;;;;;;;;;;688199;28;742;-72
2023/12/14 01:33:55;;;;;;;31.60;15.57;;;;;;;;;;688037;28;4314;-71
2023/12/14 01:34:15;;;;;;;31.80;15.63;;;;;;;;;;689482;28;778;-72
2023/12/14 01:34:36;;;;;;;29.23;15.20;;;;;;;;;;686751;28;845;-71
2023/12/14 01:34:56;;;;;;;28.75;15.68;;;;;;;;;;685943;28;1762;-71
2023/12/14 01:35:16;;;;;;;29.27;16.03;;;;;;;;;;689462;28;2412;-71
2023/12/14 01:35:36;;;;;;;30.33;16.03;;;;;;;;;;686584;28;983;-71
2023/12/14 01:35:57;;;;;;;30.27;15.47;;;;;;;;;;686076;28;1926;-72
2023/12/14 01:36:23;;;;;;;29.40;15.60;;;;;;;;;;686895;28;957;-72
2023/12/14 01:36:44;;;;;;;29.52;15.90;;;;;;;;;;686423;28;2558;-71
2023/12/14 01:37:04;;;;;;;28.97;15.60;;;;;;;;;;688827;28;4309;-71
2023/12/14 01:37:24;;;;;;;31.23;15.93;;;;;;;;;;687855;28;1284;-72
2023/12/14 01:37:44;;;;;;;29.40;15.90;;;;;;;;;;686321;28;1010;-71
2023/12/14 01:38:05;;;;;;;29.17;15.97;;;;;;;;;;683283;28;1542;-71
2023/12/14 01:38:25;;;;;;;29.92;16.20;;;;;;;;;;681711;28;1328;-72
2023/12/14 01:38:46;;;;;;;30.07;15.50;;;;;;;;;;681942;28;1899;-71
2023/12/14 01:39:06;;;;;;;30.77;15.77;;;;;;;;;;683977;28;6084;-72
2023/12/14 01:39:26;;;;;;;29.73;15.63;;;;;;;;;;687272;28;1133;-72
2023/12/14 01:39:46;;;;;;;32.57;15.87;;;;;;;;;;688157;28;1570;-72
2023/12/14 01:40:07;;;;;;;30.20;16.37;;;;;;;;;;689155;28;4230;-72
2023/12/14 01:40:27;;;;;;;31.33;16.55;;;;;;;;;;689690;28;967;-71
2023/12/14 01:40:48;;;;;;;28.47;15.37;;;;;;;;;;689341;28;1963;-72
2023/12/14 01:41:09;;;;;;;30.10;15.77;;;;;;;;;;689174;28;817;-72
2023/12/14 01:41:29;;;;;;;30.08;15.35;;;;;;;;;;689652;28;775;-72
2023/12/14 01:41:49;;;;;;;30.00;15.47;;;;;;;;;;689022;28;1852;-72
2023/12/14 01:42:09;;;;;;;31.70;16.07;;;;;;;;;;689365;28;853;-71
2023/12/14 01:42:29;;;;;;;31.67;16.13;;;;;;;;;;689135;28;1812;-73
2023/12/14 01:42:50;;;;;;;30.73;16.15;;;;;;;;;;688541;28;5331;-72
2023/12/14 01:43:10;;;;;;;31.80;16.23;;;;;;;;;;689003;28;809;-72
2023/12/14 01:43:30;;;;;;;33.37;16.57;;;;;;;;;;689809;28;976;-72
2023/12/14 01:43:51;;;;;;;33.33;16.43;;;;;;;;;;688343;28;2398;-73
2023/12/14 01:44:11;;;;;;;35.87;15.97;;;;;;;;;;686721;28;1268;-73
2023/12/14 01:44:31;;;;;;;36.43;17.10;;;;;;;;;;688622;28;984;-71
2023/12/14 01:44:51;;;;;;;33.67;16.63;;;;;;;;;;681211;28;2214;-71
2023/12/14 01:45:15;;;;;;;34.43;16.13;;;;;;;;;;682131;28;862;-71
2023/12/14 01:45:35;;;;;;;35.90;17.45;;;;;;;;;;682735;28;790;-72
2023/12/14 01:45:55;;;;;;;35.28;17.33;;;;;;;;;;680852;28;4275;-72
2023/12/14 01:46:16;;;;;;;34.60;17.00;;;;;;;;;;685718;28;1214;-72
2023/12/14 01:46:36;;;;;;;32.70;16.52;;;;;;;;;;683346;28;999;-71
2023/12/14 01:46:56;;;;;;;32.50;16.90;;;;;;;;;;688519;28;2608;-72
2023/12/14 01:47:17;;;;;;;32.87;16.00;;;;;;;;;;687248;28;900;-72
2023/12/14 01:47:37;;;;;;;34.00;16.10;;;;;;;;;;689233;28;848;-71
2023/12/14 01:47:57;;;;;;;35.33;16.50;;;;;;;;;;686333;28;1857;-72
2023/12/14 01:48:18;;;;;;;33.67;16.13;;;;;;;;;;686516;28;951;-72
2023/12/14 01:48:38;;;;;;;33.03;15.87;;;;;;;;;;687365;28;944;-72
2023/12/14 01:48:58;;;;;;;35.00;16.43;;;;;;;;;;686970;28;4285;-72
2023/12/14 01:49:18;;;;;;;36.17;16.98;;;;;;;;;;685589;28;1430;-72
2023/12/14 01:49:41;;;;;;;34.03;16.20;;;;;;;;;;683195;28;858;-72
2023/12/14 01:50:01;;;;;;;33.92;16.25;;;;;;;;;;681957;28;1019;-73
2023/12/14 01:50:21;;;;;;;34.83;16.80;;;;;;;;;;684028;28;913;-72
2023/12/14 01:50:42;;;;;;;36.07;17.17;;;;;;;;;;683094;28;2464;-71
2023/12/14 01:51:02;;;;;;;34.70;17.25;;;;;;;;;;684543;28;805;-72
2023/12/14 01:51:23;;;;;;;33.33;16.43;;;;;;;;;;682424;28;790;-71
2023/12/14 01:51:43;;;;;;;33.43;16.03;;;;;;;;;;685072;28;1078;-72
2023/12/14 01:52:03;;;;;;;34.58;16.38;;;;;;;;;;688973;28;4265;-72
2023/12/14 01:52:24;;;;;;;32.53;15.87;;;;;;;;;;688257;28;878;-71
2023/12/14 01:52:44;;;;;;;35.13;16.25;;;;;;;;;;688198;28;1834;-71
2023/12/14 01:53:04;;;;;;;34.97;16.90;;;;;;;;;;687039;28;1297;-72
2023/12/14 01:53:24;;;;;;;32.87;16.57;;;;;;;;;;689480;28;755;-72
2023/12/14 01:53:45;;;;;;;34.47;16.93;;;;;;;;;;688780;28;1862;-72
2023/12/14 01:54:05;;;;;;;35.40;16.93;;;;;;;;;;690383;28;801;-72
2023/12/14 01:54:25;;;;;;;34.90;16.47;;;;;;;;;;689877;28;802;-72
2023/12/14 01:54:45;;;;;;;34.27;16.53;;;;;;;;;;688077;28;1829;-71
2023/12/14 01:55:06;;;;;;;36.93;17.27;;;;;;;;;;688864;28;4257;-71
2023/12/14 01:55:26;;;;;;;36.93;16.40;;;;;;;;;;689675;28;809;-72
2023/12/14 01:55:47;;;;;;;37.92;16.77;;;;;;;;;;687512;28;2513;-72
2023/12/14 01:56:07;;;;;;;39.20;17.57;;;;;;;;;;689411;28;1969;-71
2023/12/14 01:56:27;;;;;;;38.15;17.40;;;;;;;;;;689469;28;860;-72
2023/12/14 01:56:48;;;;;;;36.30;16.73;;;;;;;;;;685551;28;2399;-71
2023/12/14 01:57:08;;;;;;;36.53;16.47;;;;;;;;;;686635;28;803;-72
2023/12/14 01:57:29;;;;;;;34.40;16.20;;;;;;;;;;687125;28;897;-71
2023/12/14 01:57:49;;;;;;;33.38;16.42;;;;;;;;;;686143;28;4299;-72
2023/12/14 01:58:09;;;;;;;34.53;16.97;;;;;;;;;;684525;28;1208;-71
2023/12/14 01:58:30;;;;;;;38.17;16.70;;;;;;;;;;686944;28;889;-72
2023/12/14 01:58:50;;;;;;;39.28;16.83;;;;;;;;;;688417;28;1741;-71
2023/12/14 01:59:10;;;;;;;35.27;16.47;;;;;;;;;;689109;28;852;-71
2023/12/14 01:59:30;;;;;;;35.10;16.80;;;;;;;;;;688169;28;1290;-72
2023/12/14 01:59:51;;;;;;;36.73;16.80;;;;;;;;;;686821;28;2262;-72
2023/12/14 02:00:22;;;;;;;37.70;16.43;;;;;;;;;;688729;28;880;-73
2023/12/14 02:00:49;;;;;;;39.63;17.33;;;;;;;;;;681365;28;992;-72
2023/12/14 02:01:21;;;;;;;40.63;17.60;;;;;;;;;;679112;29;4922;-70
2023/12/14 02:01:42;;;;;;;38.92;17.48;;;;;;;;;;682680;28;1833;-72
2023/12/14 02:02:05;;;;;;;41.05;17.63;;;;;;;;;;684399;28;997;-71
2023/12/14 02:02:25;;;;;;;38.97;17.40;;;;;;;;;;684417;28;2198;-72
2023/12/14 02:02:46;;;;;;;38.05;16.85;;;;;;;;;;687667;28;1696;-72
2023/12/14 02:03:06;;;;;;;36.33;16.50;;;;;;;;;;689313;28;869;-72
2023/12/14 02:03:26;;;;;;;38.88;17.38;;;;;;;;;;689574;28;964;-72
2023/12/14 02:03:48;;;;;;;39.53;17.60;;;;;;;;;;688919;28;1500;-72
2023/12/14 02:04:09;;;;;;;37.28;17.05;;;;;;;;;;689159;28;4632;-71
2023/12/14 02:04:30;;;;;;;41.45;17.45;;;;;;;;;;690244;28;838;-72